Fort Lewis, WA

4:29 AM PDT on May 23, 2017 (GMT -0700)
Gray Army Air Field

Weather History for KGRF - December, 2013

Change the Weather History Date:

Sunday, December 1, 2013

  Actual Average Record
Temperature  
Mean Temperature 48 °F -  
Max Temperature 53 °F 46 °F 56 °F (2008)
Min Temperature 42 °F 34 °F 16 °F (2014)
Degree Days  
Heating Degree Days 18    
Moisture  
Dew Point 49 °F    
Average Humidity 96    
Maximum Humidity 100    
Minimum Humidity 73    
Precipitation  
Precipitation 0.47 in - - ()
Sea Level Pressure  
Sea Level Pressure 29.91 in    
Wind  
Wind Speed 12 mph (SSW)    
Max Wind Speed 24 mph    
Max Gust Speed 33 mph    
Visibility 10 miles    
Events Rain    
Averages and records for this station are not official NWS values.
T = Trace of Precipitation, MM = Missing Value Source: NWS Daily Summary

Daily Weather History Graph

Daily Weather History Graph

Search for Another Location

Airport or City:

Trip Planner

Search our weather history database for the weather conditions in past years. The results will help you decide how hot, cold, wet, or windy it might be!

Date:

Astronomy

Dec. 01, 2013 Rise Set
Actual Time 7:36 AM PST 4:22 PM PST
Civil Twilight 7:01 AM PST 4:57 PM PST
Nautical Twilight 6:23 AM PST 5:35 PM PST
Astronomical Twilight 5:46 AM PST 6:12 PM PST
Moon 5:55 AM PST (12/1) 3:41 PM PST (12/1)
Length of Visible Light 9h 56m
Length of Day
8h 46m
Waning Crescent, 2% of the Moon is Illuminated
Dec 1
Waning Crescent
Dec 2
New
Dec 9
First Quarter
Dec 17
Full
Dec 25
Last Quarter

Hourly Weather History & Observations

Time (PST) Temp. Windchill Dew Point Humidity Pressure Visibility Wind Dir Wind Speed Gust Speed Precip Events Conditions
12:58 AM 48.7 °F - 48.4 °F 99% 30.09 in 10.0 mi South 8.1 mph - 0.06 in Rain Light Rain
1:13 AM 48.2 °F - 48.2 °F 100% 30.05 in 10.0 mi SSE 6.9 mph - N/A Rain Light Rain
1:58 AM 49.3 °F - 48.9 °F 99% 30.03 in 6.0 mi SSE 5.8 mph - 0.06 in Rain Light Rain
2:43 AM 50.0 °F - 50.0 °F 100% 29.98 in 10.0 mi South 16.1 mph 24.2 mph N/A Rain Light Rain
2:53 AM 50.0 °F - 50.0 °F 100% 29.98 in 10.0 mi South 20.7 mph 28.8 mph N/A Rain Light Rain
2:58 AM 49.8 °F - 49.5 °F 99% 30.00 in 10.0 mi SSE 17.3 mph 28.8 mph 0.09 in Rain Light Rain
3:03 AM 50.0 °F - 50.0 °F 100% 29.97 in 10.0 mi South 19.6 mph 27.6 mph N/A Rain Light Rain
3:28 AM 50.0 °F - 50.0 °F 100% 29.95 in 10.0 mi SSE 18.4 mph 27.6 mph N/A Rain Light Rain
3:58 AM 49.6 °F - 49.3 °F 99% 29.96 in 10.0 mi South 16.1 mph 25.3 mph 0.04 in Rain Light Rain
4:18 AM 50.0 °F - 50.0 °F 100% 29.93 in 10.0 mi South 15.0 mph - N/A Rain Light Rain
4:23 AM 50.0 °F - 50.0 °F 100% 29.93 in 10.0 mi SSE 15.0 mph - N/A Rain Rain
4:33 AM 50.0 °F - 50.0 °F 100% 29.92 in 10.0 mi South 16.1 mph 21.9 mph N/A Rain Light Rain
4:43 AM 50.0 °F - 50.0 °F 100% 29.92 in 10.0 mi South 12.7 mph 20.7 mph N/A   Light Drizzle
4:50 AM 50.0 °F - 50.0 °F 100% 29.93 in 10.0 mi South 15.0 mph 20.7 mph N/A   Overcast
4:58 AM 50.0 °F - 50.0 °F 100% 29.95 in 10.0 mi South 13.8 mph - 0.02 in   Overcast
5:06 AM 51.8 °F - 50.0 °F 94% 29.93 in 10.0 mi South 16.1 mph 24.2 mph N/A   Light Drizzle
5:11 AM 51.8 °F - 51.8 °F 100% 29.92 in 10.0 mi South 13.8 mph 24.2 mph N/A   Overcast
5:21 AM 51.8 °F - 51.8 °F 100% 29.93 in 10.0 mi South 15.0 mph 20.7 mph N/A   Light Drizzle
5:41 AM 51.8 °F - 51.8 °F 100% 29.93 in 8.0 mi South 11.5 mph - N/A Rain Light Rain
5:46 AM 51.8 °F - 51.8 °F 100% 29.92 in 8.0 mi South 15.0 mph 21.9 mph N/A Rain Light Rain
5:58 AM 51.8 °F - 51.6 °F 99% 29.95 in 8.0 mi South 10.4 mph 21.9 mph 0.02 in Rain Light Rain
6:03 AM 51.8 °F - 51.8 °F 100% 29.93 in 10.0 mi South 11.5 mph - N/A Rain Light Rain
6:13 AM 51.8 °F - 51.8 °F 100% 29.94 in 10.0 mi South 13.8 mph - N/A   Overcast
6:15 AM 51.8 °F - 51.8 °F 100% 29.94 in 10.0 mi SSW 12.7 mph - N/A Rain Light Rain
6:16 AM 51.8 °F - 51.8 °F 100% 29.94 in 10.0 mi SSW 12.7 mph - N/A   Overcast
6:17 AM 51.8 °F - 51.8 °F 100% 29.94 in 10.0 mi SSW 12.7 mph - N/A Rain Light Rain
6:29 AM 51.8 °F - 51.8 °F 100% 29.94 in 10.0 mi South 9.2 mph - N/A   Overcast
6:30 AM 51.8 °F - 51.8 °F 100% 29.94 in 10.0 mi South 10.4 mph - N/A Rain Light Rain
6:31 AM 51.8 °F - 51.8 °F 100% 29.94 in 10.0 mi South 10.4 mph - N/A   Overcast
6:35 AM 51.8 °F - 51.8 °F 100% 29.94 in 10.0 mi South 12.7 mph - N/A Rain Light Rain
6:48 AM 51.8 °F - 51.8 °F 100% 29.94 in 10.0 mi South 11.5 mph - N/A   Overcast
6:53 AM 53.6 °F - 51.8 °F 94% 29.94 in 10.0 mi South 12.7 mph - N/A   Overcast
6:58 AM 52.7 °F - 52.5 °F 99% 29.96 in 10.0 mi South 12.7 mph - 0.01 in   Overcast
7:03 AM 53.6 °F - 51.8 °F 94% 29.94 in 10.0 mi South 10.4 mph - N/A   Overcast
7:23 AM 51.8 °F - 51.8 °F 100% 29.95 in 10.0 mi South 11.5 mph - N/A   Overcast
7:24 AM 53.6 °F - 51.8 °F 94% 29.95 in 10.0 mi South 10.4 mph - N/A   Light Drizzle
7:36 AM 51.8 °F - 51.8 °F 100% 29.95 in 10.0 mi South 11.5 mph 18.4 mph N/A   Overcast
7:38 AM 53.6 °F - 51.8 °F 94% 29.95 in 10.0 mi SSW 9.2 mph 18.4 mph N/A Rain Heavy Rain
7:53 AM 51.8 °F - 51.8 °F 100% 29.96 in 5.0 mi South 10.4 mph - N/A Rain Light Rain
7:58 AM 52.3 °F - 52.0 °F 99% 29.98 in 5.0 mi SSW 11.5 mph - 0.02 in Rain Light Rain
8:00 AM 51.8 °F - 51.8 °F 100% 29.97 in 6.0 mi SSW 10.4 mph - N/A   Overcast
8:02 AM 51.8 °F - 51.8 °F 100% 29.97 in 6.0 mi South 11.5 mph - N/A   Light Drizzle
8:07 AM 51.8 °F - 51.8 °F 100% 29.97 in 9.0 mi SSW 10.4 mph - N/A Rain Light Rain
8:24 AM 51.8 °F - 51.8 °F 100% 29.97 in 6.0 mi SSW 11.5 mph - N/A Rain Light Rain
8:37 AM 51.8 °F - 51.8 °F 100% 29.98 in 10.0 mi South 10.4 mph 18.4 mph N/A   Overcast
8:47 AM 51.8 °F - 51.8 °F 100% 29.99 in 10.0 mi South 9.2 mph - N/A   Overcast
8:55 AM 51.8 °F - 51.8 °F 100% 29.98 in 10.0 mi South 9.2 mph - N/A   Light Drizzle
8:58 AM 51.8 °F - 51.4 °F 99% 30.00 in 9.0 mi South 10.4 mph - 0.02 in   Light Drizzle
9:13 AM 51.8 °F - 51.8 °F 100% 29.98 in 10.0 mi South 10.4 mph - N/A   Overcast
9:33 AM 51.8 °F - 51.8 °F 100% 29.99 in 10.0 mi SSW 6.9 mph - N/A   Overcast
9:38 AM 51.8 °F - 51.8 °F 100% 29.98 in 10.0 mi South 8.1 mph - N/A   Overcast
9:47 AM 51.8 °F - 51.8 °F 100% 29.98 in 10.0 mi South 8.1 mph - N/A Rain Rain
9:52 AM 51.8 °F - 51.8 °F 100% 29.99 in 10.0 mi South 10.4 mph - N/A Rain Light Rain
9:58 AM 51.6 °F - 51.3 °F 99% 30.01 in 10.0 mi South 10.4 mph - 0.00 in   Light Drizzle
10:03 AM 51.8 °F - 51.8 °F 100% 29.99 in 10.0 mi SSW 10.4 mph - N/A Rain Light Rain
10:16 AM 51.8 °F - 51.8 °F 100% 29.99 in 10.0 mi South 10.4 mph - N/A   Overcast
10:26 AM 51.8 °F - 51.8 °F 100% 29.98 in 10.0 mi South 11.5 mph - N/A   Overcast
10:58 AM 51.8 °F - 51.4 °F 99% 30.00 in 10.0 mi SSW 11.5 mph - 0.01 in   Overcast
11:08 AM 51.8 °F - 51.8 °F 100% 29.97 in 10.0 mi South 9.2 mph 17.3 mph N/A   Overcast
11:33 AM 51.8 °F - 51.8 °F 100% 29.97 in 10.0 mi SSW 9.2 mph - N/A   Overcast
11:38 AM 51.8 °F - 51.8 °F 100% 29.96 in 10.0 mi SSW 10.4 mph - N/A   Overcast
11:53 AM 51.8 °F - 51.8 °F 100% 29.95 in 10.0 mi SSW 9.2 mph - N/A   Overcast
11:58 AM 51.4 °F - 51.1 °F 99% 29.97 in 10.0 mi SSW 9.2 mph - N/A   Overcast
12:07 PM 51.8 °F - 51.8 °F 100% 29.95 in 10.0 mi SSW 6.9 mph - N/A   Light Drizzle
12:15 PM 51.8 °F - 51.8 °F 100% 29.95 in 10.0 mi SSW 6.9 mph - N/A   Overcast
12:30 PM 51.8 °F - 50.0 °F 94% 29.94 in 10.0 mi SSW 9.2 mph - N/A   Overcast
12:31 PM 51.8 °F - 50.0 °F 94% 29.94 in 10.0 mi SSW 8.1 mph - N/A   Light Drizzle
12:56 PM 50.0 °F - 50.0 °F 100% 29.94 in 10.0 mi SSW 10.4 mph - N/A   Light Drizzle
12:58 PM 50.7 °F - 50.2 °F 98% 29.96 in 10.0 mi SW 9.2 mph - 0.00 in   Light Drizzle
1:53 PM 50.0 °F - 50.0 °F 100% 29.92 in 10.0 mi South 8.1 mph - N/A   Overcast
1:58 PM 50.4 °F - 50.2 °F 99% 29.94 in 10.0 mi SSW 8.1 mph - 0.04 in   Overcast
2:03 PM 50.0 °F - 50.0 °F 100% 29.91 in 10.0 mi South 8.1 mph - N/A   Overcast
2:20 PM 50.0 °F - 50.0 °F 100% 29.90 in 10.0 mi South 8.1 mph - N/A Rain Light Rain
2:58 PM 50.7 °F - 50.5 °F 99% 29.91 in 10.0 mi South 8.1 mph - 0.02 in   Light Drizzle
3:22 PM 50.0 °F - 50.0 °F 100% 29.88 in 10.0 mi South 11.5 mph - N/A   Mostly Cloudy
3:34 PM 50.0 °F - 50.0 °F 100% 29.88 in 10.0 mi South 9.2 mph - N/A Rain Light Rain
3:58 PM 50.4 °F - 50.2 °F 99% 29.88 in 10.0 mi South 12.7 mph - 0.04 in Rain Light Rain
4:22 PM 50.0 °F - 50.0 °F 100% 29.87 in 10.0 mi SSW 16.1 mph 21.9 mph N/A   Partly Cloudy
4:58 PM 49.8 °F - 49.6 °F 99% 29.86 in 10.0 mi South 12.7 mph - 0.00 in Rain Light Rain
5:31 PM 50.0 °F - 48.2 °F 94% 29.85 in 10.0 mi South 15.0 mph 19.6 mph N/A   Clear
5:36 PM 50.0 °F - 48.2 °F 94% 29.85 in 10.0 mi South 12.7 mph 19.6 mph N/A   Light Drizzle
5:51 PM 50.0 °F - 48.2 °F 94% 29.84 in 10.0 mi South 13.8 mph - N/A   Partly Cloudy
5:58 PM 49.3 °F - 48.9 °F 99% 29.86 in 10.0 mi South 13.8 mph - 0.01 in   Partly Cloudy
5:59 PM 50.0 °F - 48.2 °F 94% 29.84 in 10.0 mi South 15.0 mph - N/A Rain Light Rain
6:08 PM 50.0 °F - 48.2 °F 94% 29.84 in 10.0 mi South 15.0 mph 20.7 mph N/A   Scattered Clouds
6:33 PM 50.0 °F - 48.2 °F 94% 29.83 in 10.0 mi South 12.7 mph 24.2 mph N/A   Light Drizzle
6:45 PM 50.0 °F - 48.2 °F 94% 29.83 in 10.0 mi South 12.7 mph 21.9 mph N/A   Overcast
6:50 PM 50.0 °F - 48.2 °F 94% 29.83 in 10.0 mi SSW 16.1 mph 21.9 mph N/A   Overcast
6:51 PM 50.0 °F - 48.2 °F 94% 29.83 in 10.0 mi SSW 15.0 mph 21.9 mph N/A Rain Light Rain
6:58 PM 49.3 °F - 49.1 °F 99% 29.83 in 9.0 mi SSW 13.8 mph 21.9 mph 0.00 in Rain Light Rain
7:16 PM 50.0 °F - 48.2 °F 94% 29.81 in 10.0 mi SSW 15.0 mph 23.0 mph N/A   Overcast
7:17 PM 50.0 °F - 48.2 °F 94% 29.81 in 10.0 mi SSW 15.0 mph 23.0 mph N/A Rain Light Rain
7:19 PM 50.0 °F - 48.2 °F 94% 29.81 in 10.0 mi SSW 16.1 mph 23.0 mph N/A   Overcast
7:21 PM 50.0 °F - 48.2 °F 94% 29.81 in 10.0 mi South 16.1 mph 23.0 mph N/A Rain Light Rain
7:31 PM 50.0 °F - 48.2 °F 94% 29.80 in 10.0 mi SSW 13.8 mph 26.5 mph N/A   Overcast
7:46 PM 50.0 °F - 46.4 °F 87% 29.81 in 10.0 mi SSW 13.8 mph 26.5 mph N/A   Mostly Cloudy
7:51 PM 48.2 °F - 46.4 °F 93% 29.81 in 10.0 mi SSW 12.7 mph 23.0 mph N/A   Mostly Cloudy
7:56 PM 48.2 °F - 46.4 °F 93% 29.81 in 10.0 mi SSW 15.0 mph 21.9 mph N/A   Mostly Cloudy
7:58 PM 48.9 °F - 47.1 °F 93% 29.83 in 10.0 mi SSW 15.0 mph 21.9 mph 0.00 in   Mostly Cloudy
7:59 PM 48.2 °F - 46.4 °F 93% 29.81 in 9.0 mi SSW 16.1 mph 23.0 mph N/A   Light Drizzle
8:04 PM 48.2 °F - 46.4 °F 93% 29.82 in 7.0 mi SW 12.7 mph 23.0 mph N/A   Light Drizzle
8:10 PM 48.2 °F - 48.2 °F 100% 29.82 in 8.0 mi SSW 13.8 mph 23.0 mph N/A   Overcast
8:15 PM 48.2 °F - 46.4 °F 93% 29.82 in 10.0 mi SSW 12.7 mph 23.0 mph N/A   Overcast
8:35 PM 48.2 °F - 44.6 °F 87% 29.82 in 10.0 mi SSW 10.4 mph - N/A   Overcast
8:58 PM 47.7 °F - 44.4 °F 89% 29.85 in 10.0 mi SW 10.4 mph 17.3 mph 0.00 in   Overcast
9:00 PM 48.2 °F - 44.6 °F 87% 29.83 in 10.0 mi SSW 12.7 mph 17.3 mph N/A   Light Drizzle
9:18 PM 46.4 °F 40.1 °F 42.8 °F 87% 29.84 in 10.0 mi SW 15.0 mph 24.2 mph N/A   Overcast
9:33 PM 46.4 °F 39.2 °F 41.0 °F 81% 29.84 in 10.0 mi SW 18.4 mph 29.9 mph N/A   Overcast
9:38 PM 46.4 °F 38.5 °F 41.0 °F 81% 29.84 in 10.0 mi SW 21.9 mph 29.9 mph N/A   Overcast
9:39 PM 46.4 °F 39.0 °F 41.0 °F 81% 29.84 in 10.0 mi SW 19.6 mph 29.9 mph N/A   Light Drizzle
9:49 PM 46.4 °F 40.1 °F 41.0 °F 81% 29.84 in 10.0 mi SW 15.0 mph 24.2 mph N/A   Overcast
9:58 PM 46.9 °F - 41.2 °F 80% 29.87 in 10.0 mi SSW 11.5 mph 19.6 mph 0.01 in   Overcast
9:59 PM 46.4 °F 39.5 °F 41.0 °F 81% 29.85 in 10.0 mi SW 17.3 mph 33.4 mph N/A   Light Drizzle
10:06 PM 46.4 °F 39.8 °F 39.2 °F 76% 29.84 in 10.0 mi SSW 16.1 mph 33.4 mph N/A   Overcast
10:58 PM 45.9 °F 39.4 °F 37.6 °F 73% 29.87 in 10.0 mi SW 15.0 mph 20.7 mph 0.00 in   Overcast
11:13 PM 44.6 °F 38.1 °F 37.4 °F 76% 29.85 in 10.0 mi SW 13.8 mph 20.7 mph N/A   Overcast
11:23 PM 44.6 °F 35.7 °F 37.4 °F 76% 29.85 in 8.0 mi SW 24.2 mph 33.4 mph N/A   Overcast
11:24 PM 44.6 °F 36.4 °F 37.4 °F 76% 29.86 in 8.0 mi SW 20.7 mph 33.4 mph N/A Rain Light Rain
11:34 PM 42.8 °F 37.0 °F 39.2 °F 87% 29.86 in 10.0 mi SSW 10.4 mph 25.3 mph N/A   Overcast
11:42 PM 42.8 °F 35.1 °F 39.2 °F 87% 29.86 in 10.0 mi SSW 16.1 mph 20.7 mph N/A   Overcast
11:58 PM 42.4 °F 35.7 °F 39.0 °F 88% 29.89 in 10.0 mi SW 12.7 mph - 0.00 in   Overcast
11:59 PM 42.8 °F 36.6 °F 39.2 °F 87% 29.87 in 10.0 mi SW 11.5 mph - N/A   Light Drizzle